De Forest, Wisconsin
Current Conditions -  °F | °C
As of 6:11 PM on Saturday 22 Nov 2014 (Local Time) from KMSN Reporting Station
Overcast Overcast  
Wind Chill: 42°   Ceiling: 800
Heat Index: 46°   Visibility: 7mi
Dew Point: 43°   Wind: 7mph
Humidity: 89%   Direction: 180°S
Pressure: 29.78"   Gusts: NA
Location:  43.25°N, 89.34°W
Report Text: KMSN 230011Z 18006KT 7SM OVC008 08/06 A2978 RMK AO2 CIG 006V010 T00780061
Loading
Personal Weather Stations






























Interactive Weather Map New forecast layout! Learn more

10-Day Weather Forecast

Advertisements
Track Severe Weather on mobile